createdAt,value
2023-01-19T08:23:35.732Z,98004.20
2023-01-19T08:26:02.935Z,98010.81
2023-01-19T08:28:29.719Z,98024.59
2023-01-19T08:30:56.529Z,98031.91
2023-01-19T08:33:23.929Z,98047.59
2023-01-19T08:35:52.086Z,98036.30
2023-01-19T08:38:19.034Z,98043.70
2023-01-19T08:40:45.820Z,98050.26
2023-01-19T08:43:14.365Z,98048.20
2023-01-19T08:45:46.697Z,98047.45
2023-01-19T08:48:14.159Z,98062.56
2023-01-19T08:50:41.060Z,98075.48
2023-01-19T08:53:07.842Z,98070.54
2023-01-19T08:55:35.875Z,98062.21
2023-01-19T08:58:04.424Z,98053.38
2023-01-19T09:00:33.418Z,98066.05
2023-01-19T09:03:03.678Z,98064.18
2023-01-19T09:05:39.062Z,98067.95
2023-01-19T09:08:11.451Z,98064.45
2023-01-19T09:10:39.139Z,98068.17
2023-01-19T09:13:08.372Z,98069.44
2023-01-19T09:15:37.768Z,98064.82
2023-01-19T09:18:06.962Z,98058.51
2023-01-19T09:20:34.854Z,98059.40
2023-01-19T09:23:01.552Z,98051.70
2023-01-19T09:25:28.264Z,98051.11
2023-01-19T09:27:56.201Z,98048.65
2023-01-19T09:30:22.973Z,98040.47
2023-01-19T09:32:49.723Z,98033.34
2023-01-19T09:35:16.572Z,98036.64
2023-01-19T09:37:47.471Z,98031.33
2023-01-19T09:40:15.206Z,98030.25
2023-01-19T09:42:46.353Z,98016.65
2023-01-19T09:45:35.069Z,98020.52
2023-01-19T09:48:03.071Z,98009.83
2023-01-19T09:50:36.503Z,98006.27
2023-01-19T09:53:07.478Z,98004.92
2023-01-19T09:55:34.205Z,97994.56
2023-01-19T09:58:01.320Z,97996.91
2023-01-19T10:00:28.347Z,97997.43
2023-01-19T10:03:16.316Z,97992.48
2023-01-19T10:05:55.048Z,97985.84
2023-01-19T10:08:46.937Z,97985.73
2023-01-19T10:11:51.520Z,97972.70
2023-01-19T10:14:28.377Z,97969.88
2023-01-19T10:17:23.642Z,97955.99
2023-01-19T10:19:52.332Z,97954.20
2023-01-19T10:22:24.264Z,97949.69
2023-01-19T10:25:00.295Z,97952.23
2023-01-19T10:27:29.078Z,97952.03
2023-01-19T10:29:55.976Z,97955.96
2023-01-19T10:32:25.764Z,97955.32
2023-01-19T10:34:53.297Z,97956.98
2023-01-19T10:37:32.533Z,97949.41
2023-01-19T10:40:21.644Z,97941.38
2023-01-19T10:42:48.668Z,97938.52
2023-01-19T10:45:20.304Z,97939.41
2023-01-19T10:47:47.950Z,97931.60
2023-01-19T10:50:32.606Z,97926.82
2023-01-19T10:53:01.415Z,97925.43
2023-01-19T10:55:29.467Z,97920.75
2023-01-19T10:57:56.935Z,97915.85
2023-01-19T11:00:38.252Z,97910.85
2023-01-19T11:03:21.714Z,97912.23
2023-01-19T11:05:48.528Z,97911.70
2023-01-19T11:08:23.235Z,97905.91
2023-01-19T11:10:55.750Z,97905.63
2023-01-19T11:13:22.658Z,97897.02
2023-01-19T11:15:54.740Z,97897.27
2023-01-19T11:18:28.648Z,97899.88
2023-01-19T11:20:57.065Z,97896.60
2023-01-19T11:23:32.708Z,97894.59
2023-01-19T11:26:01.697Z,97898.56
2023-01-19T11:28:31.772Z,97898.20
2023-01-19T11:31:17.259Z,97901.08
2023-01-19T11:33:48.409Z,97897.65
2023-01-19T11:36:17.585Z,97882.60
2023-01-19T11:38:45.861Z,97878.98
2023-01-19T11:41:17.082Z,97882.39
2023-01-19T11:43:49.355Z,97882.98
2023-01-19T11:46:16.689Z,97878.02
2023-01-19T11:48:48.142Z,97871.11
2023-01-19T11:51:16.729Z,97874.45
2023-01-19T11:53:43.813Z,97872.23
2023-01-19T11:56:11.455Z,97879.77
2023-01-19T11:58:40.177Z,97877.97
2023-01-19T12:01:17.611Z,97879.35
2023-01-19T12:03:47.079Z,97887.77
2023-01-19T12:06:20.031Z,97890.04
2023-01-19T12:08:57.927Z,97877.67
2023-01-19T12:11:35.041Z,97871.27
2023-01-19T12:14:02.257Z,97868.18
2023-01-19T12:16:30.275Z,97875.67
2023-01-19T12:19:16.740Z,97882.21
2023-01-19T12:21:44.163Z,97887.45
2023-01-19T12:24:22.857Z,97882.13
2023-01-19T12:26:53.394Z,97874.20
2023-01-19T12:29:22.488Z,97874.23
2023-01-19T12:32:16.400Z,97871.16
2023-01-19T12:34:44.395Z,97871.41
2023-01-19T12:37:36.255Z,97870.40
2023-01-19T12:40:22.121Z,97875.75
2023-01-19T12:42:57.371Z,97884.85
2023-01-19T12:45:25.843Z,97888.59
2023-01-19T12:47:53.240Z,97891.99
2023-01-19T12:50:23.311Z,97900.11
2023-01-19T12:52:51.742Z,97898.44
2023-01-19T12:55:27.340Z,97905.95
2023-01-19T12:58:07.396Z,97902.92
2023-01-19T13:00:34.232Z,97891.02
2023-01-19T13:03:16.457Z,97895.67
2023-01-19T13:05:43.150Z,97890.63
2023-01-19T16:29:34.578Z,97966.35
2023-01-19T16:32:01.339Z,97967.39
2023-01-19T16:34:28.193Z,97963.45
2023-01-19T16:36:54.914Z,97967.30
2023-01-19T16:39:21.984Z,97966.77
2023-01-19T16:41:48.701Z,97962.98
2023-01-19T16:44:15.916Z,97962.89
2023-01-19T16:46:44.147Z,97960.44
2023-01-19T16:49:15.746Z,97960.13
2023-01-19T16:51:42.526Z,97956.30
2023-01-19T16:54:17.190Z,97952.95
2023-01-19T16:56:43.999Z,97955.23
2023-01-19T16:59:15.047Z,97955.92
2023-01-19T17:01:42.075Z,97954.65
2023-01-19T17:04:09.432Z,97952.09
2023-01-19T17:06:36.126Z,97945.34
2023-01-19T17:09:02.881Z,97937.91
2023-01-19T17:11:31.095Z,97936.04
2023-01-19T17:14:00.257Z,97943.50
2023-01-19T17:16:28.089Z,97952.80
2023-01-19T17:18:56.836Z,97953.59
2023-01-19T17:21:24.214Z,97955.70
2023-01-19T17:23:52.327Z,97954.27
2023-01-19T17:26:19.152Z,97957.16
2023-01-19T17:28:46.563Z,97955.55
2023-01-19T17:31:15.539Z,97953.27
2023-01-19T17:33:47.024Z,97952.36
2023-01-19T17:36:15.809Z,97949.86
2023-01-19T17:38:42.521Z,97944.02
2023-01-19T17:41:16.616Z,97946.34
2023-01-19T17:43:43.594Z,97937.15
2023-01-19T17:46:10.406Z,97945.61
2023-01-19T17:48:37.835Z,97945.82
2023-01-19T17:51:05.971Z,97945.20
2023-01-19T17:53:33.834Z,97943.75
2023-01-19T17:56:04.736Z,97943.75
2023-01-19T17:58:31.691Z,97945.63
2023-01-19T18:00:58.959Z,97941.72
2023-01-19T18:03:25.645Z,97936.89
2023-01-19T18:05:57.364Z,97936.73
2023-01-19T18:08:24.140Z,97940.83
2023-01-19T18:10:57.445Z,97938.61
2023-01-19T18:13:24.158Z,97942.33
2023-01-19T18:15:51.075Z,97949.87
2023-01-19T18:18:18.274Z,97946.56
2023-01-19T18:20:44.955Z,97943.36
2023-01-19T18:23:11.886Z,97941.49
2023-01-19T18:25:39.654Z,97942.13
2023-01-19T18:28:07.444Z,97941.86
2023-01-19T18:30:34.465Z,97942.39
2023-01-19T18:33:01.438Z,97941.80
2023-01-19T18:35:29.107Z,97937.29
2023-01-19T18:37:57.372Z,97937.44
2023-01-19T18:40:24.836Z,97938.29
2023-01-19T18:42:52.290Z,97940.89
2023-01-19T18:45:19.745Z,97946.32
2023-01-19T18:47:46.459Z,97949.35
2023-01-19T18:50:14.636Z,97947.33
2023-01-19T18:52:41.510Z,97951.73
2023-01-19T18:55:08.824Z,97948.71
2023-01-19T18:57:35.771Z,97949.72
2023-01-19T19:00:03.886Z,97946.91
2023-01-19T19:02:31.021Z,97943.77
2023-01-19T19:04:58.069Z,97945.31
2023-01-19T19:07:25.014Z,97944.02
2023-01-19T19:09:51.753Z,97942.94
2023-01-19T19:12:18.431Z,97944.80
2023-01-19T19:14:45.127Z,97953.86
2023-01-19T19:17:12.460Z,97949.11
2023-01-19T19:19:39.434Z,97947.75
2023-01-19T19:22:07.403Z,97948.02
2023-01-19T19:24:34.170Z,97950.82
2023-01-19T19:27:01.086Z,97952.20
2023-01-19T19:29:28.530Z,97951.84
2023-01-19T19:31:56.709Z,97961.23
2023-01-19T19:34:24.896Z,97959.06
2023-01-19T19:36:51.714Z,97958.05
2023-01-19T19:39:18.551Z,97958.37
2023-01-19T19:41:45.637Z,97964.28
2023-01-19T19:44:15.411Z,97959.39
2023-01-19T19:46:42.209Z,97958.85
2023-01-19T19:49:09.025Z,97960.60
2023-01-19T19:51:35.767Z,97960.50
2023-01-19T19:54:02.804Z,97961.83
2023-01-19T19:56:30.776Z,97967.46
2023-01-19T19:58:59.715Z,97973.31
2023-01-19T20:01:33.739Z,97968.16
2023-01-19T20:04:09.847Z,97970.48
2023-01-19T20:06:39.116Z,97968.91
2023-01-19T20:09:06.659Z,97971.98
2023-01-19T20:11:33.373Z,97972.58
2023-01-19T20:14:00.384Z,97973.41
2023-01-19T20:16:27.324Z,97975.38
2023-01-19T20:18:54.477Z,97976.88
2023-01-19T20:21:23.129Z,97977.61
2023-01-19T20:23:51.448Z,97980.06
2023-01-19T20:26:20.902Z,97984.38
2023-01-19T20:28:47.785Z,97987.77
2023-01-19T20:31:20.417Z,97991.70
2023-01-19T20:33:48.331Z,97990.64
2023-01-19T20:36:15.380Z,97987.88
2023-01-19T20:38:44.202Z,97986.91
2023-01-19T20:41:11.949Z,97991.70
2023-01-19T20:43:39.193Z,97996.10
2023-01-19T20:46:06.847Z,97998.10
2023-01-19T20:48:33.558Z,97996.81
2023-01-19T20:51:08.622Z,98000.90
2023-01-19T20:53:35.947Z,97998.45
2023-01-19T20:56:08.141Z,98000.31
2023-01-19T20:58:34.946Z,98002.59
2023-01-19T21:01:12.908Z,98008.76
2023-01-19T21:03:40.239Z,98011.06
2023-01-19T21:06:07.291Z,98010.27
2023-01-19T21:08:34.641Z,98010.20
2023-01-19T21:11:01.487Z,98015.42
2023-01-19T21:13:28.429Z,98021.00
2023-01-19T21:15:55.124Z,98021.68
2023-01-19T21:18:22.119Z,98017.44
2023-01-19T21:20:49.250Z,98019.52
2023-01-19T21:23:16.314Z,98021.69
2023-01-19T21:25:53.935Z,98026.43
2023-01-19T21:28:21.993Z,98022.44
2023-01-19T21:30:49.823Z,98024.30
2023-01-19T21:33:17.301Z,98020.20
2023-01-19T21:36:10.535Z,98022.49
2023-01-19T21:38:37.706Z,98027.60
2023-01-19T21:41:06.571Z,98033.14
2023-01-19T21:43:35.241Z,98039.20
2023-01-19T21:46:13.782Z,98041.33
2023-01-19T21:48:41.746Z,98039.98
2023-01-19T21:51:08.453Z,98041.21
2023-01-19T21:53:35.152Z,98043.29
